createdAt,value
2022-11-05T00:00:35.536Z,8.80
2022-11-05T00:03:21.035Z,8.80
2022-11-05T00:06:09.680Z,8.80
2022-11-05T00:08:55.379Z,8.70
2022-11-05T00:11:44.229Z,8.70
2022-11-05T00:14:31.937Z,8.70
2022-11-05T00:17:01.311Z,8.80
2022-11-05T00:19:29.461Z,8.70
2022-11-05T00:22:14.710Z,8.80
2022-11-05T00:25:00.252Z,8.80
2022-11-05T00:27:28.370Z,8.80
2022-11-05T00:29:56.364Z,8.80
2022-11-05T00:32:25.734Z,8.80
2022-11-05T00:34:53.972Z,8.80
2022-11-05T00:37:22.069Z,9.00
2022-11-05T00:39:50.106Z,9.00
2022-11-05T00:42:35.456Z,9.00
2022-11-05T00:45:03.492Z,8.90
2022-11-05T00:47:51.657Z,8.80
2022-11-05T00:50:20.599Z,8.80
2022-11-05T00:52:57.613Z,8.90
2022-11-05T00:55:29.029Z,8.90
2022-11-05T00:57:57.696Z,9.00
2022-11-05T01:00:28.614Z,9.00
2022-11-05T01:03:00.660Z,9.00
2022-11-05T01:05:29.580Z,9.00
2022-11-05T01:07:57.813Z,8.90
2022-11-05T01:10:26.002Z,8.90
2022-11-05T01:12:54.407Z,8.90
2022-11-05T01:15:22.594Z,8.80
2022-11-05T01:17:52.057Z,8.80
2022-11-05T01:20:21.504Z,8.80
2022-11-05T01:22:49.643Z,9.00
2022-11-05T01:25:17.840Z,9.00
2022-11-05T01:27:46.057Z,8.90
2022-11-05T01:30:14.863Z,8.90
2022-11-05T01:32:43.077Z,8.80
2022-11-05T01:35:15.053Z,9.00
2022-11-05T01:37:44.546Z,8.90
2022-11-05T01:40:14.422Z,9.00
2022-11-05T01:42:42.831Z,9.00
2022-11-05T01:45:17.240Z,9.00
2022-11-05T01:48:02.246Z,8.90
2022-11-05T01:50:36.908Z,9.00
2022-11-05T01:53:16.101Z,8.90
2022-11-05T01:55:49.087Z,8.90
2022-11-05T01:58:22.993Z,9.00
2022-11-05T02:00:51.527Z,9.00
2022-11-05T02:03:20.379Z,9.00
2022-11-05T02:05:51.542Z,9.00
2022-11-05T02:08:37.675Z,9.00
2022-11-05T02:11:06.569Z,9.00
2022-11-05T02:13:34.614Z,8.90
2022-11-05T02:16:11.921Z,8.90
2022-11-05T02:18:51.474Z,8.90
2022-11-05T02:21:51.147Z,8.90
2022-11-05T02:24:48.270Z,8.90
2022-11-05T02:27:31.094Z,8.80
2022-11-05T02:30:29.593Z,8.80
2022-11-05T02:33:15.354Z,8.90
2022-11-05T02:36:00.343Z,8.90
2022-11-05T02:38:40.365Z,8.80
2022-11-05T02:41:13.965Z,8.80
2022-11-05T02:43:52.791Z,8.90
2022-11-05T02:46:33.148Z,8.90
2022-11-05T02:49:13.085Z,8.90
2022-11-05T02:51:48.479Z,8.80
2022-11-05T02:54:21.410Z,8.70
2022-11-05T02:56:52.901Z,8.80
2022-11-05T02:59:21.014Z,8.70
2022-11-05T03:01:51.897Z,8.70
2022-11-05T03:04:23.261Z,8.80
2022-11-05T03:07:14.500Z,8.80
2022-11-05T03:10:15.392Z,8.70
2022-11-05T03:12:53.228Z,8.80
2022-11-05T03:15:35.488Z,8.80
2022-11-05T03:18:13.039Z,8.80
2022-11-05T03:20:48.338Z,8.80
2022-11-05T03:23:22.956Z,8.70
2022-11-05T03:25:54.684Z,8.70
2022-11-05T03:28:25.351Z,8.70
2022-11-05T03:30:55.105Z,8.70
2022-11-05T03:33:28.954Z,8.70
2022-11-05T03:36:00.050Z,8.70
2022-11-05T03:38:32.091Z,8.70
2022-11-05T03:41:05.022Z,8.70
2022-11-05T03:43:36.925Z,8.70
2022-11-05T03:46:09.168Z,8.80
2022-11-05T03:48:42.789Z,8.70
2022-11-05T03:51:19.065Z,8.70
2022-11-05T03:53:51.369Z,8.70
2022-11-05T03:56:27.506Z,8.60
2022-11-05T03:58:59.061Z,8.60
2022-11-05T04:01:28.351Z,8.60
2022-11-05T04:03:57.798Z,8.60
2022-11-05T04:06:43.223Z,8.70
2022-11-05T04:09:29.534Z,8.70
2022-11-05T04:12:14.967Z,8.70
2022-11-05T04:14:43.099Z,8.70
2022-11-05T04:17:10.178Z,8.70
2022-11-05T04:19:58.675Z,8.60
2022-11-05T04:22:45.485Z,8.60
2022-11-05T04:25:14.393Z,8.50
2022-11-05T04:27:42.395Z,8.50
2022-11-05T04:30:19.046Z,8.60
2022-11-05T04:33:04.452Z,8.60
2022-11-05T04:35:35.493Z,8.60
2022-11-05T04:38:04.232Z,8.60
2022-11-05T04:40:32.501Z,8.60
2022-11-05T04:43:00.857Z,8.60
2022-11-05T04:45:30.638Z,8.70
2022-11-05T04:47:58.679Z,8.60
2022-11-05T04:50:26.867Z,8.60
2022-11-05T04:52:56.288Z,8.70
2022-11-05T04:55:24.549Z,8.70
2022-11-05T04:57:53.824Z,8.70
2022-11-05T05:00:23.758Z,8.70
2022-11-05T05:02:51.892Z,8.70
2022-11-05T05:05:21.284Z,8.70
2022-11-05T05:07:49.354Z,8.70
2022-11-05T05:10:18.873Z,8.90
2022-11-05T05:12:46.888Z,8.80
2022-11-05T05:15:14.888Z,8.90
2022-11-05T05:17:42.862Z,8.90
2022-11-05T05:20:28.528Z,8.90
2022-11-05T05:22:56.818Z,8.90
2022-11-05T05:25:26.390Z,8.90
2022-11-05T05:27:57.299Z,8.90
2022-11-05T05:30:25.650Z,8.80
2022-11-05T05:32:53.662Z,8.90
2022-11-05T05:35:21.653Z,8.90
2022-11-05T05:37:49.656Z,8.90
2022-11-05T05:40:17.793Z,9.00
2022-11-05T05:42:47.200Z,8.80
2022-11-05T05:45:15.379Z,8.90
2022-11-05T05:47:43.456Z,9.00
2022-11-05T05:50:11.490Z,8.90
2022-11-05T05:52:39.439Z,8.80
2022-11-05T05:55:07.896Z,8.80
2022-11-05T05:57:36.233Z,8.70
2022-11-05T06:00:07.122Z,8.90
2022-11-05T06:02:35.223Z,8.80
2022-11-05T06:05:03.390Z,8.80
2022-11-05T06:07:36.852Z,8.80
2022-11-05T06:10:06.285Z,8.90
2022-11-05T06:12:34.580Z,8.80
2022-11-05T06:15:02.665Z,8.90
2022-11-05T06:17:33.789Z,8.90
2022-11-05T06:20:01.929Z,8.90
2022-11-05T06:22:30.559Z,8.80
2022-11-05T06:24:58.551Z,8.70
2022-11-05T06:27:26.604Z,8.70
2022-11-05T06:29:54.717Z,8.80
2022-11-05T06:32:22.686Z,8.70
2022-11-05T06:34:52.180Z,8.70
2022-11-05T06:37:20.140Z,8.60
2022-11-05T06:39:48.354Z,8.60
2022-11-05T06:42:18.988Z,8.70
2022-11-05T06:44:48.063Z,8.60
2022-11-05T06:47:16.143Z,8.60
2022-11-05T06:49:44.499Z,8.60
2022-11-05T06:52:14.721Z,8.60
2022-11-05T06:54:43.923Z,8.60
2022-11-05T06:57:13.448Z,8.60
2022-11-05T06:59:41.921Z,8.60
2022-11-05T07:02:13.253Z,8.60
2022-11-05T07:04:41.344Z,8.60
2022-11-05T07:07:09.350Z,8.60
2022-11-05T07:09:42.590Z,8.70
2022-11-05T07:12:11.075Z,8.70
2022-11-05T07:14:39.105Z,8.80
2022-11-05T07:17:07.078Z,8.80
2022-11-05T07:19:35.114Z,8.80
2022-11-05T07:22:03.060Z,8.80
2022-11-05T07:24:31.150Z,8.80
2022-11-05T07:27:00.541Z,8.70
2022-11-05T07:29:28.578Z,8.80
2022-11-05T07:31:56.615Z,8.80
2022-11-05T07:34:24.722Z,8.70
2022-11-05T07:36:52.745Z,8.80
2022-11-05T07:39:20.874Z,8.80
2022-11-05T07:41:48.921Z,8.80
2022-11-05T07:44:18.265Z,8.80
2022-11-05T07:46:46.209Z,8.80
2022-11-05T07:49:14.442Z,9.00
2022-11-05T07:51:42.496Z,9.00
2022-11-05T07:54:10.776Z,9.00
2022-11-05T07:56:38.875Z,8.90
2022-11-05T07:59:07.032Z,8.80
2022-11-05T08:01:36.546Z,8.90
2022-11-05T08:04:04.896Z,8.90
2022-11-05T08:06:33.047Z,8.90
2022-11-05T08:09:01.213Z,8.90
2022-11-05T08:11:29.310Z,9.00
2022-11-05T08:13:57.299Z,9.00
2022-11-05T08:16:25.758Z,9.10
2022-11-05T08:18:55.196Z,9.20
2022-11-05T08:21:23.314Z,9.20
2022-11-05T08:23:51.363Z,9.30
2022-11-05T08:26:19.538Z,9.40
2022-11-05T08:28:47.676Z,9.60
2022-11-05T08:31:17.789Z,9.70
2022-11-05T08:33:45.804Z,9.70
2022-11-05T08:36:15.286Z,9.70
2022-11-05T08:38:43.311Z,9.70
2022-11-05T08:41:11.304Z,9.70
2022-11-05T08:43:39.343Z,9.60
2022-11-05T08:46:07.863Z,9.50
2022-11-05T08:48:35.930Z,9.50
2022-11-05T08:51:04.240Z,9.40
2022-11-05T08:53:33.607Z,9.30
2022-11-05T08:56:01.709Z,9.20
2022-11-05T08:58:29.744Z,9.10
2022-11-05T09:01:03.385Z,9.10
2022-11-05T09:03:32.621Z,9.10
2022-11-05T09:06:00.689Z,9.10
2022-11-05T09:08:28.814Z,9.10
2022-11-05T09:10:58.243Z,9.20
2022-11-05T09:13:26.757Z,9.20
2022-11-05T09:15:55.229Z,9.20
2022-11-05T09:18:23.246Z,9.20
2022-11-05T09:20:51.291Z,9.50
2022-11-05T09:23:19.455Z,9.70
2022-11-05T09:25:47.727Z,9.80
2022-11-05T09:28:18.784Z,10.00
2022-11-05T09:30:48.293Z,10.10
2022-11-05T09:33:17.424Z,10.20
2022-11-05T09:35:45.702Z,10.30
2022-11-05T09:38:13.744Z,10.40
2022-11-05T09:40:48.127Z,10.50
2022-11-05T09:43:20.991Z,10.60
2022-11-05T09:45:53.124Z,10.50
2022-11-05T09:48:24.726Z,10.50
2022-11-05T09:50:54.300Z,10.60
2022-11-05T09:53:24.456Z,10.80
2022-11-05T09:55:55.517Z,11.00
2022-11-05T09:58:43.636Z,11.10
2022-11-05T10:01:16.745Z,11.00
2022-11-05T10:03:47.318Z,11.00
2022-11-05T10:06:20.444Z,11.00
2022-11-05T10:08:51.852Z,11.00
2022-11-05T10:11:25.995Z,11.10
2022-11-05T10:14:00.468Z,11.00
2022-11-05T10:16:32.763Z,11.10
2022-11-05T10:19:06.180Z,11.10
2022-11-05T10:22:04.468Z,11.30
2022-11-05T10:24:23.012Z,12.30
2022-11-05T10:26:54.081Z,12.40
2022-11-05T10:29:29.324Z,12.10
2022-11-05T10:31:58.264Z,11.80
2022-11-05T10:34:29.861Z,11.40
2022-11-05T10:36:58.305Z,11.20
2022-11-05T10:39:27.734Z,11.20
2022-11-05T10:42:11.128Z,11.10
2022-11-05T10:44:47.730Z,11.10
2022-11-05T10:47:36.338Z,11.30
2022-11-05T10:50:10.913Z,11.70
2022-11-05T10:52:41.195Z,12.50
2022-11-05T10:55:19.827Z,13.60
2022-11-05T10:57:49.511Z,14.50
2022-11-05T11:00:30.599Z,14.70
2022-11-05T11:03:00.904Z,14.60
2022-11-05T11:05:31.570Z,14.50
2022-11-05T11:08:07.586Z,14.30
2022-11-05T11:10:42.067Z,13.90
2022-11-05T11:13:21.173Z,13.40
2022-11-05T11:15:51.118Z,13.10
2022-11-05T11:18:27.092Z,12.80
2022-11-05T11:20:55.391Z,12.60
2022-11-05T11:23:23.379Z,12.50
2022-11-05T11:25:53.860Z,12.50
2022-11-05T11:28:25.588Z,12.30
2022-11-05T11:31:04.628Z,12.10
2022-11-05T11:33:34.120Z,11.90
2022-11-05T11:36:02.356Z,11.70
2022-11-05T11:38:32.323Z,11.50
2022-11-05T11:41:17.431Z,11.20
2022-11-05T11:43:46.628Z,11.10
2022-11-05T11:46:19.128Z,11.20
2022-11-05T11:48:48.651Z,10.90
2022-11-05T11:51:30.079Z,10.80
2022-11-05T11:53:59.929Z,10.70
2022-11-05T11:56:29.065Z,10.50
2022-11-05T11:58:58.709Z,10.50
2022-11-05T12:02:02.458Z,10.40
2022-11-05T12:04:45.857Z,10.30
2022-11-05T12:07:25.816Z,10.30
2022-11-05T12:10:12.766Z,10.20
2022-11-05T12:12:48.910Z,10.30
2022-11-05T12:15:31.745Z,10.20
2022-11-05T12:18:04.626Z,10.20
2022-11-05T12:21:01.811Z,10.20
2022-11-05T12:23:47.001Z,10.20
2022-11-05T12:26:24.547Z,10.20
2022-11-05T12:29:18.342Z,10.40
2022-11-05T12:31:56.093Z,10.30
2022-11-05T12:34:38.687Z,10.20
2022-11-05T12:37:17.071Z,10.20
2022-11-05T12:40:04.040Z,10.20
2022-11-05T12:42:52.001Z,10.20
2022-11-05T12:45:30.834Z,10.30
2022-11-05T12:48:11.699Z,10.30
2022-11-05T12:50:45.895Z,10.40
2022-11-05T12:53:54.393Z,10.40
2022-11-05T12:56:32.006Z,10.40
2022-11-05T12:59:05.370Z,10.50
2022-11-05T13:01:37.384Z,10.40
2022-11-05T13:04:13.037Z,10.50
2022-11-05T13:06:46.288Z,10.40
2022-11-05T13:09:18.203Z,10.40
2022-11-05T13:11:52.615Z,10.40
2022-11-05T13:14:24.144Z,10.40
2022-11-05T13:16:55.551Z,10.50
2022-11-05T13:19:27.493Z,10.50
2022-11-05T13:22:01.330Z,10.50
2022-11-05T13:24:35.830Z,10.50
2022-11-05T13:27:12.886Z,10.50
2022-11-05T13:29:49.768Z,10.50
2022-11-05T13:32:28.314Z,10.50
2022-11-05T13:34:57.839Z,10.40
2022-11-05T13:37:49.275Z,10.50
2022-11-05T13:40:22.633Z,10.50
2022-11-05T13:43:09.106Z,10.40
2022-11-05T13:46:12.435Z,10.50
2022-11-05T13:49:08.483Z,10.50
2022-11-05T13:51:52.474Z,10.50
2022-11-05T13:54:42.039Z,10.40
2022-11-05T13:57:41.705Z,10.40
2022-11-05T14:00:18.220Z,10.40
2022-11-05T14:02:50.636Z,10.40
2022-11-05T14:05:29.782Z,10.60
2022-11-05T14:08:00.254Z,10.50
2022-11-05T14:10:38.118Z,10.50
2022-11-05T14:13:24.358Z,10.50
2022-11-05T14:16:04.140Z,10.40
2022-11-05T14:18:53.865Z,10.30
2022-11-05T14:21:34.202Z,10.30
2022-11-05T14:24:24.969Z,10.30
2022-11-05T14:27:22.756Z,10.30
2022-11-05T14:29:52.363Z,10.10
2022-11-05T14:32:28.886Z,10.10
2022-11-05T14:35:02.125Z,10.20
2022-11-05T14:37:39.468Z,10.10
2022-11-05T14:40:28.318Z,10.40
2022-11-05T14:42:59.385Z,10.20
2022-11-05T14:45:33.528Z,10.10
2022-11-05T14:48:04.458Z,10.10
2022-11-05T14:50:36.894Z,10.20
2022-11-05T14:53:27.808Z,10.20
2022-11-05T14:56:02.145Z,10.20
2022-11-05T14:58:36.527Z,10.10
2022-11-05T15:01:08.463Z,10.10
2022-11-05T15:03:59.096Z,10.10
2022-11-05T15:06:32.240Z,10.10
2022-11-05T15:09:14.129Z,10.00
2022-11-05T15:11:46.737Z,9.90
2022-11-05T15:14:22.883Z,9.90
2022-11-05T15:16:55.240Z,10.00
2022-11-05T15:19:25.984Z,10.00
2022-11-05T15:21:57.352Z,9.90
2022-11-05T15:24:28.165Z,9.90
2022-11-05T15:27:03.323Z,9.90
2022-11-05T15:29:34.108Z,9.90
2022-11-05T15:32:03.581Z,10.00
2022-11-05T15:34:33.349Z,9.80
2022-11-05T15:37:03.261Z,9.80
2022-11-05T15:39:39.652Z,9.80
2022-11-05T15:42:13.659Z,9.70
2022-11-05T15:44:43.795Z,9.80
2022-11-05T15:47:20.211Z,9.90
2022-11-05T15:49:50.339Z,9.80
2022-11-05T15:52:19.897Z,9.80
2022-11-05T15:55:07.464Z,9.70
2022-11-05T15:57:40.036Z,9.70
2022-11-05T16:00:17.763Z,9.70
2022-11-05T16:02:53.672Z,9.70
2022-11-05T16:05:22.440Z,9.70
2022-11-05T16:07:51.934Z,9.70
2022-11-05T16:10:29.908Z,9.60
2022-11-05T16:12:58.089Z,9.70
2022-11-05T16:15:32.208Z,9.80
2022-11-05T16:18:01.773Z,9.80
2022-11-05T16:20:33.124Z,9.80
2022-11-05T16:23:02.535Z,9.60
2022-11-05T16:25:37.284Z,9.50
2022-11-05T16:28:07.472Z,9.40
2022-11-05T16:30:35.501Z,9.30
2022-11-05T16:33:09.090Z,9.20
2022-11-05T16:35:40.952Z,9.10
2022-11-05T16:38:13.228Z,9.40
2022-11-05T16:40:41.628Z,9.10
2022-11-05T16:43:18.013Z,9.10
2022-11-05T16:45:46.242Z,9.20
2022-11-05T16:48:16.733Z,9.20
2022-11-05T16:50:45.839Z,9.10
2022-11-05T16:53:14.049Z,9.10
2022-11-05T16:55:44.909Z,9.10
2022-11-05T16:58:20.714Z,9.00
2022-11-05T17:00:50.008Z,8.90
2022-11-05T17:03:19.586Z,8.80
2022-11-05T17:05:47.775Z,8.70
2022-11-05T17:08:15.958Z,8.60
2022-11-05T17:10:44.226Z,8.50
2022-11-05T17:13:15.737Z,8.70
2022-11-05T17:15:45.386Z,8.30
2022-11-05T17:18:18.163Z,8.20
2022-11-05T17:20:50.040Z,8.10
2022-11-05T17:23:21.608Z,8.10
2022-11-05T17:25:52.743Z,8.10
2022-11-05T17:28:21.820Z,8.00
2022-11-05T17:30:52.868Z,8.00
2022-11-05T17:33:22.745Z,7.90
2022-11-05T17:35:53.415Z,7.90
2022-11-05T17:38:22.460Z,7.80
2022-11-05T17:40:50.790Z,7.70
2022-11-05T17:43:19.277Z,7.70
2022-11-05T17:45:50.292Z,7.70
2022-11-05T17:48:19.272Z,7.70
2022-11-05T17:50:48.780Z,7.60
2022-11-05T17:53:19.810Z,7.50
2022-11-05T17:55:48.828Z,7.50
2022-11-05T17:58:17.274Z,7.50
2022-11-05T18:00:46.426Z,7.40
2022-11-05T18:03:15.471Z,7.30
2022-11-05T18:05:44.041Z,7.50
2022-11-05T18:08:12.542Z,7.30
2022-11-05T18:10:42.669Z,7.30
2022-11-05T18:13:11.826Z,7.30
2022-11-05T18:15:41.364Z,7.30
2022-11-05T18:18:09.985Z,7.30
2022-11-05T18:20:38.263Z,7.30
2022-11-05T18:23:06.383Z,7.30
2022-11-05T18:25:34.469Z,7.30
2022-11-05T18:28:04.391Z,7.20
2022-11-05T18:30:32.604Z,7.10
2022-11-05T18:33:00.924Z,7.20
2022-11-05T18:35:29.128Z,7.20
2022-11-05T18:37:57.225Z,7.20
2022-11-05T18:40:25.243Z,7.10
2022-11-05T18:42:53.292Z,7.10
2022-11-05T18:45:28.451Z,7.00
2022-11-05T18:47:57.726Z,6.90
2022-11-05T18:50:25.896Z,7.00
2022-11-05T18:52:54.001Z,7.00
2022-11-05T18:55:22.041Z,6.80
2022-11-05T18:57:50.141Z,6.80
2022-11-05T19:00:18.556Z,6.90
2022-11-05T19:02:48.199Z,6.80
2022-11-05T19:05:32.172Z,6.70
2022-11-05T19:08:00.317Z,6.70
2022-11-05T19:10:29.062Z,6.60
2022-11-05T19:12:58.000Z,6.60
2022-11-05T19:15:26.054Z,6.60
2022-11-05T19:17:55.447Z,6.40
2022-11-05T19:20:23.756Z,6.30
2022-11-05T19:22:51.818Z,6.30
2022-11-05T19:25:20.066Z,6.40
2022-11-05T19:27:48.137Z,6.40
2022-11-05T19:30:16.249Z,6.30
2022-11-05T19:32:44.392Z,6.30
2022-11-05T19:35:13.874Z,6.30
2022-11-05T19:37:42.093Z,6.20
2022-11-05T19:40:11.303Z,6.20
2022-11-05T19:42:39.418Z,6.20
2022-11-05T19:45:30.321Z,6.20
2022-11-05T19:47:56.585Z,6.10
2022-11-05T19:50:26.378Z,6.10
2022-11-05T19:52:54.459Z,6.00
2022-11-05T19:55:22.708Z,6.00
2022-11-05T19:57:50.711Z,6.00
2022-11-05T20:00:19.138Z,6.10
2022-11-05T20:02:48.116Z,6.10
2022-11-05T20:05:18.057Z,6.10
2022-11-05T20:07:52.782Z,6.00
2022-11-05T20:10:21.711Z,6.20
2022-11-05T20:12:49.816Z,6.10
2022-11-05T20:15:19.659Z,6.00
2022-11-05T20:17:51.135Z,5.90
2022-11-05T20:20:20.532Z,5.90
2022-11-05T20:22:52.075Z,5.90
2022-11-05T20:25:20.132Z,5.90
2022-11-05T20:27:48.189Z,5.90
2022-11-05T20:30:16.544Z,5.90
2022-11-05T20:32:44.587Z,5.80
2022-11-05T20:35:12.773Z,5.70
2022-11-05T20:37:41.075Z,5.70
2022-11-05T20:40:13.995Z,5.70
2022-11-05T20:42:42.269Z,5.60
2022-11-05T20:45:11.830Z,5.50
2022-11-05T20:47:40.082Z,5.40
2022-11-05T20:50:09.843Z,5.20
2022-11-05T20:52:38.186Z,5.30
2022-11-05T20:55:09.076Z,5.30
2022-11-05T20:57:38.970Z,5.20
2022-11-05T21:00:08.366Z,5.30
2022-11-05T21:02:36.541Z,5.30
2022-11-05T21:05:05.043Z,5.30
2022-11-05T21:07:33.271Z,5.20
2022-11-05T21:10:01.250Z,5.10
2022-11-05T21:12:29.438Z,5.20
2022-11-05T21:14:58.830Z,5.20
2022-11-05T21:17:26.950Z,5.10
2022-11-05T21:19:54.949Z,5.20
2022-11-05T21:22:23.019Z,5.20
2022-11-05T21:24:51.054Z,5.10
2022-11-05T21:27:19.085Z,5.00
2022-11-05T21:29:47.465Z,5.00
2022-11-05T21:32:17.032Z,5.00
2022-11-05T21:34:45.054Z,5.00
2022-11-05T21:37:13.111Z,5.00
2022-11-05T21:39:41.244Z,5.00
2022-11-05T21:42:09.282Z,5.10
2022-11-05T21:44:37.605Z,5.20
2022-11-05T21:47:05.817Z,5.20
2022-11-05T21:49:36.918Z,5.20
2022-11-05T21:52:23.035Z,5.20
2022-11-05T21:55:08.273Z,5.40
2022-11-05T21:57:53.993Z,5.30
2022-11-05T22:00:22.159Z,5.40
2022-11-05T22:02:50.521Z,5.30
2022-11-05T22:05:20.066Z,5.00
2022-11-05T22:07:48.173Z,4.70
2022-11-05T22:10:17.184Z,4.70
2022-11-05T22:12:46.092Z,4.70
2022-11-05T22:15:14.483Z,4.70
2022-11-05T22:17:46.918Z,4.70
2022-11-05T22:20:16.218Z,4.70
2022-11-05T22:22:46.004Z,4.60
2022-11-05T22:25:15.423Z,4.70
2022-11-05T22:27:44.333Z,4.70
2022-11-05T22:30:13.719Z,4.80
2022-11-05T22:32:41.791Z,4.70
2022-11-05T22:35:10.664Z,4.60
2022-11-05T22:37:38.735Z,4.50
2022-11-05T22:40:09.670Z,4.50
2022-11-05T22:42:37.971Z,4.60
2022-11-05T22:45:07.255Z,4.60
2022-11-05T22:47:35.541Z,4.50
2022-11-05T22:50:03.965Z,4.60
2022-11-05T22:52:32.739Z,4.60
2022-11-05T22:55:02.625Z,4.60
2022-11-05T22:57:32.125Z,4.60
2022-11-05T23:00:00.199Z,4.70
2022-11-05T23:02:28.404Z,4.60
2022-11-05T23:04:56.594Z,4.70
2022-11-05T23:07:42.005Z,4.80
2022-11-05T23:10:28.743Z,4.70
2022-11-05T23:12:58.364Z,4.70
2022-11-05T23:15:43.678Z,4.70
2022-11-05T23:18:29.266Z,4.70
2022-11-05T23:21:21.939Z,4.80
2022-11-05T23:24:06.340Z,4.80
2022-11-05T23:26:51.442Z,4.80
2022-11-05T23:29:22.706Z,4.70
2022-11-05T23:32:08.241Z,4.70
2022-11-05T23:34:36.332Z,4.70
2022-11-05T23:37:21.944Z,4.80
2022-11-05T23:39:50.263Z,4.60
2022-11-05T23:42:36.645Z,4.60
2022-11-05T23:45:24.807Z,4.60
2022-11-05T23:48:11.024Z,4.60
2022-11-05T23:50:40.224Z,4.50
2022-11-05T23:53:08.898Z,4.50
2022-11-05T23:55:37.583Z,4.50
2022-11-05T23:58:05.786Z,4.50
